Terminal Aerodrome Forecast
Issued by NWS

Home | Current Version | Previous Version | Text Only | Print | Product List | Glossary On
Versions: 1 2 3 4 5 6 7 8 9 10 11 12 13 14 15
715
FTAK31 PAJN 012335
TAFAJN
TAF
PAJN 012335Z 0200/0224 07010KT P6SM -RA FEW004 BKN035 OVC060
      TEMPO 0202/0206 4SM -RA BR SCT004 BKN025 OVC040
     FM020800 11015G25KT 3SM RA BR BKN010 OVC020 WS020/15035KT
     FM021800 24011KT 5SM -RA BR SCT015 OVC025=

USA.gov is the U.S. government's official web portal to all federal, state and local government web resources and services.